Terminal Aerodrome Forecast
Issued by NWS Fort Wayne, IN

Home | Current Version | Previous Version | Graphics & Text | Print | Product List | Glossary On
Versions: 1 2 3 4 5 6 7 8 9 10 11 12 13 14 15 16 17 18 19 20 21 22
000
FTUS43 KIWX 191900 AAA
TAFFWA
TAF AMD
KFWA 191914Z 1919/2018 08015KT 4SM RA OVC035
     FM192100 10014G20KT 3SM RA BR OVC025
      TEMPO 1922/2002 2SM RA BR OVC008
     FM200500 22014KT P6SM OVC008
     FM201500 22016G22KT 4SM -SHRA BR OVC008=

USA.gov is the U.S. government's official web portal to all federal, state and local government web resources and services.